Погода Пиньял-Новуна 2 недели

Сетубал, Португалия

21 июля-03 августа
  • 21июля
    Сегодня
    +16°
    +29°
    Ясно и безоблачно
    ВремяПогодаТемператураВлажностьДавлениеВетер, м/сВероятность осадков
    01:00Облачно с прояснениями+21°C88 %759 мм2.9 м/с3 %
    04:00Ясно и безоблачно+19°C87 %758 мм4.4 м/с2 %
    07:00Ясно и безоблачно+17°C84 %759 мм4.9 м/с2 %
    10:00Практически безоблачно+22°C61 %759 мм5.5 м/с2 %
    13:00Ясно и безоблачно+27°C47 %759 мм5.2 м/с2 %
    16:00Ясно и безоблачно+29°C36 %758 мм6.5 м/с2 %
    19:00Ясно и безоблачно+25°C45 %758 мм6.2 м/с2 %
    22:00Ясно и безоблачно+20°C66 %758 мм5.0 м/с2 %
  • 22июля
    Понедельник
    +18°
    +38°
    Ясно и безоблачно
    ВремяПогодаТемператураВлажностьДавлениеВетер, м/сВероятность осадков
    01:00Ясно и безоблачно+18°C77 %759 мм3.7 м/с2 %
    04:00Ясно и безоблачно+17°C82 %758 мм3.5 м/с2 %
    07:00Ясно и безоблачно+16°C87 %758 мм1.9 м/с2 %
    10:00Ясно и безоблачно+24°C56 %758 мм2.2 м/с2 %
    13:00Ясно и безоблачно+33°C27 %758 мм1.3 м/с2 %
    16:00Ясно и безоблачно+37°C18 %757 мм1.4 м/с2 %
    19:00Ясно и безоблачно+36°C30 %757 мм4.5 м/с2 %
    22:00Ясно и безоблачно+27°C37 %758 мм4.1 м/с2 %
  • 23июля
    Вторник
    +17°
    +37°
    Ясно и безоблачно
    ВремяПогодаТемператураВлажностьДавлениеВетер, м/сВероятность осадков
    01:00Ясно и безоблачно+24°C42 %758 мм1.3 м/с2 %
    04:00Ясно и безоблачно+22°C47 %758 мм1.4 м/с2 %
    07:00Ясно и безоблачно+19°C64 %758 мм1.7 м/с2 %
    10:00Ясно и безоблачно+28°C42 %760 мм1.3 м/с2 %
    13:00Ясно и безоблачно+34°C29 %760 мм2.6 м/с2 %
    16:00Ясно и безоблачно+36°C26 %759 мм3.5 м/с2 %
    19:00Ясно и безоблачно+33°C31 %759 мм2.6 м/с2 %
    22:00Ясно и безоблачно+27°C50 %759 мм2.1 м/с2 %
  • 24июля
    Среда
    +17°
    +39°
    Ясно и безоблачно
    ВремяПогодаТемператураВлажностьДавлениеВетер, м/сВероятность осадков
    01:00Ясно и безоблачно+23°C53 %759 мм0.8 м/с2 %
    04:00Практически безоблачно+19°C68 %758 мм1.0 м/с2 %
    07:00Практически безоблачно+18°C78 %758 мм0.8 м/с2 %
    10:00Ясно и безоблачно+28°C49 %759 мм0.4 м/с2 %
    13:00Ясно и безоблачно+36°C29 %758 мм1.2 м/с2 %
    16:00Ясно и безоблачно+40°C22 %757 мм1.8 м/с2 %
    19:00Ясно и безоблачно+34°C34 %757 мм4.3 м/с2 %
    22:00Ясно и безоблачно+24°C58 %757 мм2.5 м/с2 %
  • 25июля
    Четверг
    +18°
    +31°
    Ясно и безоблачно
    ВремяПогодаТемператураВлажностьДавлениеВетер, м/сВероятность осадков
    01:00Ясно и безоблачно+20°C76 %757 мм2.3 м/с2 %
    04:00Ясно и безоблачно+18°C91 %756 мм2.2 м/с2 %
    07:00Ясно и безоблачно+17°C96 %756 мм2.2 м/с2 %
    10:00Ясно и безоблачно+23°C70 %756 мм2.6 м/с2 %
    13:00Ясно и безоблачно+29°C46 %756 мм4.6 м/с2 %
    16:00Ясно и безоблачно+30°C44 %755 мм5.9 м/с2 %
    19:00Ясно и безоблачно+25°C59 %755 мм5.8 м/с2 %
    22:00Ясно и безоблачно+20°C81 %756 мм5.6 м/с2 %
Мы используем cookies
Соглашаюсь